sensor_id;sensor_type;location;lat;lon;timestamp;temperature;humidity
48912;DHT22;34722;52.108;5.044;2023-06-19T00:01:44;22.50;99.90
48912;DHT22;34722;52.108;5.044;2023-06-19T00:04:10;22.50;1.00
48912;DHT22;34722;52.108;5.044;2023-06-19T00:06:36;22.40;1.00
48912;DHT22;34722;52.108;5.044;2023-06-19T00:09:03;22.40;1.00
48912;DHT22;34722;52.108;5.044;2023-06-19T00:11:29;22.40;1.00
48912;DHT22;34722;52.108;5.044;2023-06-19T00:13:58;22.30;1.00
48912;DHT22;34722;52.108;5.044;2023-06-19T00:16:24;22.20;1.00
48912;DHT22;34722;52.108;5.044;2023-06-19T00:18:51;22.20;1.00
48912;DHT22;34722;52.108;5.044;2023-06-19T00:21:20;22.10;1.00
48912;DHT22;34722;52.108;5.044;2023-06-19T00:23:45;22.00;1.00
48912;DHT22;34722;52.108;5.044;2023-06-19T00:26:11;21.90;32.00
48912;DHT22;34722;52.108;5.044;2023-06-19T00:28:39;21.90;99.90
48912;DHT22;34722;52.108;5.044;2023-06-19T00:31:07;21.80;99.90
48912;DHT22;34722;52.108;5.044;2023-06-19T00:33:32;21.70;99.90
48912;DHT22;34722;52.108;5.044;2023-06-19T00:35:58;21.70;99.90
48912;DHT22;34722;52.108;5.044;2023-06-19T00:38:24;21.70;99.90
48912;DHT22;34722;52.108;5.044;2023-06-19T00:40:49;21.70;1.00
48912;DHT22;34722;52.108;5.044;2023-06-19T00:43:15;21.60;1.00
48912;DHT22;34722;52.108;5.044;2023-06-19T00:45:41;21.50;21.10
48912;DHT22;34722;52.108;5.044;2023-06-19T00:48:07;21.40;99.90
48912;DHT22;34722;52.108;5.044;2023-06-19T00:50:36;21.30;99.90
48912;DHT22;34722;52.108;5.044;2023-06-19T00:53:02;21.30;1.00
48912;DHT22;34722;52.108;5.044;2023-06-19T00:55:29;21.20;99.90
48912;DHT22;34722;52.108;5.044;2023-06-19T00:57:56;21.10;6.70
48912;DHT22;34722;52.108;5.044;2023-06-19T01:00:25;21.00;1.00
48912;DHT22;34722;52.108;5.044;2023-06-19T01:02:51;20.90;9.70
48912;DHT22;34722;52.108;5.044;2023-06-19T01:05:17;20.90;1.00
48912;DHT22;34722;52.108;5.044;2023-06-19T01:10:18;20.60;1.00
48912;DHT22;34722;52.108;5.044;2023-06-19T01:12:52;20.50;99.90
48912;DHT22;34722;52.108;5.044;2023-06-19T01:15:22;20.40;1.00
48912;DHT22;34722;52.108;5.044;2023-06-19T01:17:49;20.40;1.00
48912;DHT22;34722;52.108;5.044;2023-06-19T01:20:15;20.40;17.50
48912;DHT22;34722;52.108;5.044;2023-06-19T01:22:44;20.30;71.60
48912;DHT22;34722;52.108;5.044;2023-06-19T01:25:12;20.30;99.90
48912;DHT22;34722;52.108;5.044;2023-06-19T01:27:40;20.30;99.90
48912;DHT22;34722;52.108;5.044;2023-06-19T01:30:10;20.30;99.90
48912;DHT22;34722;52.108;5.044;2023-06-19T01:32:58;20.30;99.90
48912;DHT22;34722;52.108;5.044;2023-06-19T01:35:28;20.40;99.90
48912;DHT22;34722;52.108;5.044;2023-06-19T01:38:02;20.40;99.90
48912;DHT22;34722;52.108;5.044;2023-06-19T01:40:43;20.40;99.90
48912;DHT22;34722;52.108;5.044;2023-06-19T01:43:30;20.30;99.90
48912;DHT22;34722;52.108;5.044;2023-06-19T01:46:09;20.40;99.90
48912;DHT22;34722;52.108;5.044;2023-06-19T01:48:43;20.30;99.90
48912;DHT22;34722;52.108;5.044;2023-06-19T01:51:13;20.30;99.90
48912;DHT22;34722;52.108;5.044;2023-06-19T01:53:38;20.30;99.90
48912;DHT22;34722;52.108;5.044;2023-06-19T01:56:10;20.30;99.90
48912;DHT22;34722;52.108;5.044;2023-06-19T01:58:36;20.30;99.90
48912;DHT22;34722;52.108;5.044;2023-06-19T02:01:04;20.20;99.90
48912;DHT22;34722;52.108;5.044;2023-06-19T02:03:35;20.10;99.90
48912;DHT22;34722;52.108;5.044;2023-06-19T02:06:01;20.20;99.90
48912;DHT22;34722;52.108;5.044;2023-06-19T02:08:26;20.10;99.90
48912;DHT22;34722;52.108;5.044;2023-06-19T02:10:52;20.20;99.90
48912;DHT22;34722;52.108;5.044;2023-06-19T02:13:18;20.10;99.90
48912;DHT22;34722;52.108;5.044;2023-06-19T02:15:44;20.10;99.90
48912;DHT22;34722;52.108;5.044;2023-06-19T02:18:09;20.10;99.90
48912;DHT22;34722;52.108;5.044;2023-06-19T02:20:35;20.10;99.90
48912;DHT22;34722;52.108;5.044;2023-06-19T02:23:01;20.10;99.90
48912;DHT22;34722;52.108;5.044;2023-06-19T02:25:27;20.10;99.90
48912;DHT22;34722;52.108;5.044;2023-06-19T02:27:52;20.10;99.90
48912;DHT22;34722;52.108;5.044;2023-06-19T02:30:18;20.10;99.90
48912;DHT22;34722;52.108;5.044;2023-06-19T02:32:44;20.10;99.90
48912;DHT22;34722;52.108;5.044;2023-06-19T02:35:11;20.00;99.90
48912;DHT22;34722;52.108;5.044;2023-06-19T02:37:37;20.00;99.90
48912;DHT22;34722;52.108;5.044;2023-06-19T02:40:04;20.10;99.90
48912;DHT22;34722;52.108;5.044;2023-06-19T02:42:36;20.10;99.90
48912;DHT22;34722;52.108;5.044;2023-06-19T02:45:02;20.10;99.90
48912;DHT22;34722;52.108;5.044;2023-06-19T02:47:32;20.00;99.90
48912;DHT22;34722;52.108;5.044;2023-06-19T02:50:02;20.10;99.90
48912;DHT22;34722;52.108;5.044;2023-06-19T02:52:29;20.10;99.90
48912;DHT22;34722;52.108;5.044;2023-06-19T02:55:02;20.10;99.90
48912;DHT22;34722;52.108;5.044;2023-06-19T02:57:27;20.00;99.90
48912;DHT22;34722;52.108;5.044;2023-06-19T02:59:53;20.10;99.90
48912;DHT22;34722;52.108;5.044;2023-06-19T03:02:20;20.10;99.90
48912;DHT22;34722;52.108;5.044;2023-06-19T03:04:46;20.10;99.90
48912;DHT22;34722;52.108;5.044;2023-06-19T03:07:12;20.10;99.90
48912;DHT22;34722;52.108;5.044;2023-06-19T03:09:39;20.00;99.90
48912;DHT22;34722;52.108;5.044;2023-06-19T03:12:11;20.00;99.90
48912;DHT22;34722;52.108;5.044;2023-06-19T03:14:37;20.00;99.90
48912;DHT22;34722;52.108;5.044;2023-06-19T03:17:03;19.90;99.90
48912;DHT22;34722;52.108;5.044;2023-06-19T03:19:29;19.90;99.90
48912;DHT22;34722;52.108;5.044;2023-06-19T03:21:54;19.80;99.90
48912;DHT22;34722;52.108;5.044;2023-06-19T03:24:20;19.90;99.90
48912;DHT22;34722;52.108;5.044;2023-06-19T03:26:48;19.90;99.90
48912;DHT22;34722;52.108;5.044;2023-06-19T03:29:17;19.80;99.90
48912;DHT22;34722;52.108;5.044;2023-06-19T03:31:43;19.80;99.90
48912;DHT22;34722;52.108;5.044;2023-06-19T03:34:12;19.80;99.90
48912;DHT22;34722;52.108;5.044;2023-06-19T03:36:40;19.80;99.90
48912;DHT22;34722;52.108;5.044;2023-06-19T03:39:09;19.70;99.90
48912;DHT22;34722;52.108;5.044;2023-06-19T03:41:35;19.70;99.90
48912;DHT22;34722;52.108;5.044;2023-06-19T03:44:01;19.70;99.90
48912;DHT22;34722;52.108;5.044;2023-06-19T03:46:27;19.70;99.90
48912;DHT22;34722;52.108;5.044;2023-06-19T03:48:53;19.70;99.90
48912;DHT22;34722;52.108;5.044;2023-06-19T03:51:21;19.70;99.90
48912;DHT22;34722;52.108;5.044;2023-06-19T03:53:47;19.70;99.90
48912;DHT22;34722;52.108;5.044;2023-06-19T03:56:13;19.70;99.90
48912;DHT22;34722;52.108;5.044;2023-06-19T03:58:39;19.70;99.90
48912;DHT22;34722;52.108;5.044;2023-06-19T04:01:04;19.70;99.90
48912;DHT22;34722;52.108;5.044;2023-06-19T04:03:31;19.70;99.90
48912;DHT22;34722;52.108;5.044;2023-06-19T04:05:59;19.70;99.90
48912;DHT22;34722;52.108;5.044;2023-06-19T04:08:28;19.70;99.90
48912;DHT22;34722;52.108;5.044;2023-06-19T04:10:54;19.70;99.90
48912;DHT22;34722;52.108;5.044;2023-06-19T04:13:20;19.70;99.90
48912;DHT22;34722;52.108;5.044;2023-06-19T04:15:46;19.70;99.90
48912;DHT22;34722;52.108;5.044;2023-06-19T04:18:12;19.70;99.90
48912;DHT22;34722;52.108;5.044;2023-06-19T04:20:38;19.70;99.90
48912;DHT22;34722;52.108;5.044;2023-06-19T04:23:11;19.70;99.90
48912;DHT22;34722;52.108;5.044;2023-06-19T04:25:38;19.70;99.90
48912;DHT22;34722;52.108;5.044;2023-06-19T04:28:04;19.60;99.90
48912;DHT22;34722;52.108;5.044;2023-06-19T04:30:30;19.60;99.90
48912;DHT22;34722;52.108;5.044;2023-06-19T04:32:57;19.60;99.90
48912;DHT22;34722;52.108;5.044;2023-06-19T04:35:23;19.60;99.90
48912;DHT22;34722;52.108;5.044;2023-06-19T04:37:49;19.50;99.90
48912;DHT22;34722;52.108;5.044;2023-06-19T04:40:15;19.60;99.90
48912;DHT22;34722;52.108;5.044;2023-06-19T04:42:46;19.50;99.90
48912;DHT22;34722;52.108;5.044;2023-06-19T04:45:12;19.50;99.90
48912;DHT22;34722;52.108;5.044;2023-06-19T04:47:38;19.50;99.90
48912;DHT22;34722;52.108;5.044;2023-06-19T04:50:07;19.50;99.90
48912;DHT22;34722;52.108;5.044;2023-06-19T04:52:34;19.40;99.90
48912;DHT22;34722;52.108;5.044;2023-06-19T04:55:05;19.40;99.90
48912;DHT22;34722;52.108;5.044;2023-06-19T04:57:35;19.50;99.90
48912;DHT22;34722;52.108;5.044;2023-06-19T05:00:04;19.40;99.90
48912;DHT22;34722;52.108;5.044;2023-06-19T05:02:35;19.40;99.90
48912;DHT22;34722;52.108;5.044;2023-06-19T05:05:02;19.40;99.90
48912;DHT22;34722;52.108;5.044;2023-06-19T05:07:30;19.40;99.90
48912;DHT22;34722;52.108;5.044;2023-06-19T05:10:02;19.40;99.90
48912;DHT22;34722;52.108;5.044;2023-06-19T05:12:35;19.40;99.90
48912;DHT22;34722;52.108;5.044;2023-06-19T05:15:02;19.40;99.90
48912;DHT22;34722;52.108;5.044;2023-06-19T05:17:28;19.40;99.90
48912;DHT22;34722;52.108;5.044;2023-06-19T05:19:53;19.30;99.90
48912;DHT22;34722;52.108;5.044;2023-06-19T05:22:19;19.30;99.90
48912;DHT22;34722;52.108;5.044;2023-06-19T05:24:47;19.30;99.90
48912;DHT22;34722;52.108;5.044;2023-06-19T05:27:13;19.20;99.90
48912;DHT22;34722;52.108;5.044;2023-06-19T05:29:39;19.10;99.90
48912;DHT22;34722;52.108;5.044;2023-06-19T05:32:09;19.20;99.90
48912;DHT22;34722;52.108;5.044;2023-06-19T05:34:35;19.10;99.90
48912;DHT22;34722;52.108;5.044;2023-06-19T05:37:01;19.10;99.90
48912;DHT22;34722;52.108;5.044;2023-06-19T05:39:29;19.00;99.90
48912;DHT22;34722;52.108;5.044;2023-06-19T05:41:55;19.00;99.90
48912;DHT22;34722;52.108;5.044;2023-06-19T05:44:23;19.20;99.90
48912;DHT22;34722;52.108;5.044;2023-06-19T05:46:49;19.20;99.90
48912;DHT22;34722;52.108;5.044;2023-06-19T05:49:15;19.30;99.90
48912;DHT22;34722;52.108;5.044;2023-06-19T05:51:41;19.30;99.90
48912;DHT22;34722;52.108;5.044;2023-06-19T05:54:07;19.20;99.90
48912;DHT22;34722;52.108;5.044;2023-06-19T05:56:33;19.20;99.90
48912;DHT22;34722;52.108;5.044;2023-06-19T05:59:00;19.20;99.90
48912;DHT22;34722;52.108;5.044;2023-06-19T06:01:26;19.30;99.90
48912;DHT22;34722;52.108;5.044;2023-06-19T06:03:56;19.50;99.90
48912;DHT22;34722;52.108;5.044;2023-06-19T06:06:25;19.40;99.90
48912;DHT22;34722;52.108;5.044;2023-06-19T06:08:51;19.50;99.90
48912;DHT22;34722;52.108;5.044;2023-06-19T06:11:21;19.50;99.90
48912;DHT22;34722;52.108;5.044;2023-06-19T06:13:47;19.60;99.90
48912;DHT22;34722;52.108;5.044;2023-06-19T06:16:13;19.50;99.90
48912;DHT22;34722;52.108;5.044;2023-06-19T06:18:39;19.60;99.90
48912;DHT22;34722;52.108;5.044;2023-06-19T06:21:06;19.60;99.90
48912;DHT22;34722;52.108;5.044;2023-06-19T06:23:32;19.90;99.90
48912;DHT22;34722;52.108;5.044;2023-06-19T06:25:58;20.30;99.90
48912;DHT22;34722;52.108;5.044;2023-06-19T06:28:28;20.20;99.90
48912;DHT22;34722;52.108;5.044;2023-06-19T06:30:54;20.40;99.90
48912;DHT22;34722;52.108;5.044;2023-06-19T06:33:20;20.30;99.90
48912;DHT22;34722;52.108;5.044;2023-06-19T06:35:45;20.20;99.90
48912;DHT22;34722;52.108;5.044;2023-06-19T06:38:11;20.10;99.90
48912;DHT22;34722;52.108;5.044;2023-06-19T06:40:37;20.10;99.90
48912;DHT22;34722;52.108;5.044;2023-06-19T06:43:03;20.00;99.90
48912;DHT22;34722;52.108;5.044;2023-06-19T06:45:28;19.90;99.90
48912;DHT22;34722;52.108;5.044;2023-06-19T06:47:54;19.90;99.90
48912;DHT22;34722;52.108;5.044;2023-06-19T06:50:20;19.90;99.90
48912;DHT22;34722;52.108;5.044;2023-06-19T06:52:45;19.80;99.90
48912;DHT22;34722;52.108;5.044;2023-06-19T06:55:11;19.90;99.90
48912;DHT22;34722;52.108;5.044;2023-06-19T06:57:37;20.10;99.90
48912;DHT22;34722;52.108;5.044;2023-06-19T07:00:06;20.30;99.90
48912;DHT22;34722;52.108;5.044;2023-06-19T07:02:35;20.40;99.90
48912;DHT22;34722;52.108;5.044;2023-06-19T07:05:01;20.50;99.90
48912;DHT22;34722;52.108;5.044;2023-06-19T07:07:27;20.30;99.90
48912;DHT22;34722;52.108;5.044;2023-06-19T07:10:01;20.40;99.90
48912;DHT22;34722;52.108;5.044;2023-06-19T07:12:27;20.40;99.90
48912;DHT22;34722;52.108;5.044;2023-06-19T07:14:53;20.60;99.90
48912;DHT22;34722;52.108;5.044;2023-06-19T07:17:19;20.50;99.90
48912;DHT22;34722;52.108;5.044;2023-06-19T07:19:46;20.70;99.90
48912;DHT22;34722;52.108;5.044;2023-06-19T07:22:12;20.60;99.90
48912;DHT22;34722;52.108;5.044;2023-06-19T07:24:44;20.60;99.90
48912;DHT22;34722;52.108;5.044;2023-06-19T07:27:10;20.60;99.90
48912;DHT22;34722;52.108;5.044;2023-06-19T07:29:36;20.50;99.90
48912;DHT22;34722;52.108;5.044;2023-06-19T07:32:02;20.60;99.90
48912;DHT22;34722;52.108;5.044;2023-06-19T07:34:29;20.50;99.90
48912;DHT22;34722;52.108;5.044;2023-06-19T07:36:55;20.80;99.90
48912;DHT22;34722;52.108;5.044;2023-06-19T07:39:21;20.90;99.90
48912;DHT22;34722;52.108;5.044;2023-06-19T07:41:46;20.80;99.90
48912;DHT22;34722;52.108;5.044;2023-06-19T07:44:12;21.20;99.90
48912;DHT22;34722;52.108;5.044;2023-06-19T07:46:38;21.50;99.90
48912;DHT22;34722;52.108;5.044;2023-06-19T07:49:04;21.60;99.90
48912;DHT22;34722;52.108;5.044;2023-06-19T07:51:30;21.70;8.50
48912;DHT22;34722;52.108;5.044;2023-06-19T07:53:56;22.10;1.00
48912;DHT22;34722;52.108;5.044;2023-06-19T07:56:21;22.20;99.90
48912;DHT22;34722;52.108;5.044;2023-06-19T07:58:47;21.70;99.90
48912;DHT22;34722;52.108;5.044;2023-06-19T08:01:13;21.50;99.90
48912;DHT22;34722;52.108;5.044;2023-06-19T08:03:39;21.70;98.30
48912;DHT22;34722;52.108;5.044;2023-06-19T08:06:04;21.60;97.70
48912;DHT22;34722;52.108;5.044;2023-06-19T08:08:33;21.70;99.90
48912;DHT22;34722;52.108;5.044;2023-06-19T08:10:58;21.90;99.90
48912;DHT22;34722;52.108;5.044;2023-06-19T08:13:24;22.10;54.10
48912;DHT22;34722;52.108;5.044;2023-06-19T08:29:17;23.60;99.90
48912;DHT22;34722;52.108;5.044;2023-06-19T09:16:08;23.00;17.80
48912;DHT22;34722;52.108;5.044;2023-06-19T09:18:47;23.30;1.00
48912;DHT22;34722;52.108;5.044;2023-06-19T09:21:18;24.10;1.00
48912;DHT22;34722;52.108;5.044;2023-06-19T09:23:47;25.10;99.90
48912;DHT22;34722;52.108;5.044;2023-06-19T09:26:17;25.20;47.30
48912;DHT22;34722;52.108;5.044;2023-06-19T09:28:44;26.50;1.00
48912;DHT22;34722;52.108;5.044;2023-06-19T09:31:10;26.20;99.90
48912;DHT22;34722;52.108;5.044;2023-06-19T09:33:37;25.80;99.90
48912;DHT22;34722;52.108;5.044;2023-06-19T09:36:04;25.00;99.90
48912;DHT22;34722;52.108;5.044;2023-06-19T09:38:32;24.90;99.90
48912;DHT22;34722;52.108;5.044;2023-06-19T09:41:01;24.90;99.90
48912;DHT22;34722;52.108;5.044;2023-06-19T09:43:44;24.70;99.90
48912;DHT22;34722;52.108;5.044;2023-06-19T09:46:12;24.80;99.90
48912;DHT22;34722;52.108;5.044;2023-06-19T09:48:44;25.30;99.90
48912;DHT22;34722;52.108;5.044;2023-06-19T09:51:25;24.50;99.90
48912;DHT22;34722;52.108;5.044;2023-06-19T09:53:53;24.60;99.90
48912;DHT22;34722;52.108;5.044;2023-06-19T09:56:19;24.90;99.90
48912;DHT22;34722;52.108;5.044;2023-06-19T09:58:51;26.70;99.90
48912;DHT22;34722;52.108;5.044;2023-06-19T10:01:19;27.10;2.20
48912;DHT22;34722;52.108;5.044;2023-06-19T10:03:44;27.20;1.00
48912;DHT22;34722;52.108;5.044;2023-06-19T10:06:14;26.90;1.00
48912;DHT22;34722;52.108;5.044;2023-06-19T10:08:42;27.70;1.00
48912;DHT22;34722;52.108;5.044;2023-06-19T10:11:09;26.70;1.00
48912;DHT22;34722;52.108;5.044;2023-06-19T10:13:36;27.00;1.00
48912;DHT22;34722;52.108;5.044;2023-06-19T10:16:04;26.00;1.00
48912;DHT22;34722;52.108;5.044;2023-06-19T10:18:32;27.00;1.00
48912;DHT22;34722;52.108;5.044;2023-06-19T10:20:57;26.80;1.00
48912;DHT22;34722;52.108;5.044;2023-06-19T10:23:26;26.60;1.00
48912;DHT22;34722;52.108;5.044;2023-06-19T10:28:21;26.40;1.00
48912;DHT22;34722;52.108;5.044;2023-06-19T10:31:02;26.20;1.00
48912;DHT22;34722;52.108;5.044;2023-06-19T10:33:31;26.40;1.00
48912;DHT22;34722;52.108;5.044;2023-06-19T10:35:58;27.60;1.00
48912;DHT22;34722;52.108;5.044;2023-06-19T10:38:28;28.20;99.90
48912;DHT22;34722;52.108;5.044;2023-06-19T10:40:57;28.60;99.90
48912;DHT22;34722;52.108;5.044;2023-06-19T10:43:27;27.80;99.90
48912;DHT22;34722;52.108;5.044;2023-06-19T10:45:57;28.60;99.90
48912;DHT22;34722;52.108;5.044;2023-06-19T10:48:24;29.60;99.90
48912;DHT22;34722;52.108;5.044;2023-06-19T10:50:51;30.00;99.90
48912;DHT22;34722;52.108;5.044;2023-06-19T10:53:32;30.10;99.90
48912;DHT22;34722;52.108;5.044;2023-06-19T10:56:00;29.80;99.90
48912;DHT22;34722;52.108;5.044;2023-06-19T10:58:27;29.80;99.90
48912;DHT22;34722;52.108;5.044;2023-06-19T11:00:53;30.30;99.90
48912;DHT22;34722;52.108;5.044;2023-06-19T11:03:19;29.50;99.90
48912;DHT22;34722;52.108;5.044;2023-06-19T11:05:46;29.40;99.90
48912;DHT22;34722;52.108;5.044;2023-06-19T11:08:22;29.00;99.90
48912;DHT22;34722;52.108;5.044;2023-06-19T11:10:51;29.50;99.90
48912;DHT22;34722;52.108;5.044;2023-06-19T11:13:20;29.50;99.90
48912;DHT22;34722;52.108;5.044;2023-06-19T11:15:47;30.20;99.90
48912;DHT22;34722;52.108;5.044;2023-06-19T11:18:18;31.50;99.90
48912;DHT22;34722;52.108;5.044;2023-06-19T11:20:51;31.30;99.90
48912;DHT22;34722;52.108;5.044;2023-06-19T11:23:17;31.50;99.90
48912;DHT22;34722;52.108;5.044;2023-06-19T11:25:43;32.30;95.70
48912;DHT22;34722;52.108;5.044;2023-06-19T11:28:16;32.60;75.10
48912;DHT22;34722;52.108;5.044;2023-06-19T11:30:48;32.40;60.80
48912;DHT22;34722;52.108;5.044;2023-06-19T11:33:21;32.90;47.00
48912;DHT22;34722;52.108;5.044;2023-06-19T11:35:51;32.10;25.30
48912;DHT22;34722;52.108;5.044;2023-06-19T11:38:21;30.90;14.30
48912;DHT22;34722;52.108;5.044;2023-06-19T11:40:47;31.50;15.00
48912;DHT22;34722;52.108;5.044;2023-06-19T11:43:32;30.80;1.00
48912;DHT22;34722;52.108;5.044;2023-06-19T11:46:10;31.40;5.50
48912;DHT22;34722;52.108;5.044;2023-06-19T11:48:39;32.40;9.10
48912;DHT22;34722;52.108;5.044;2023-06-19T11:51:04;32.20;1.00
48912;DHT22;34722;52.108;5.044;2023-06-19T11:53:30;31.60;1.00
48912;DHT22;34722;52.108;5.044;2023-06-19T11:55:56;31.00;1.00
48912;DHT22;34722;52.108;5.044;2023-06-19T11:58:22;31.10;1.00
48912;DHT22;34722;52.108;5.044;2023-06-19T12:00:48;31.30;1.00
48912;DHT22;34722;52.108;5.044;2023-06-19T12:03:14;31.70;1.00
48912;DHT22;34722;52.108;5.044;2023-06-19T12:05:43;32.30;1.00
48912;DHT22;34722;52.108;5.044;2023-06-19T12:08:09;31.10;1.00
48912;DHT22;34722;52.108;5.044;2023-06-19T12:10:35;31.50;1.00
48912;DHT22;34722;52.108;5.044;2023-06-19T12:13:01;31.20;1.00
48912;DHT22;34722;52.108;5.044;2023-06-19T12:15:26;30.90;1.00
48912;DHT22;34722;52.108;5.044;2023-06-19T12:17:53;31.40;1.00
48912;DHT22;34722;52.108;5.044;2023-06-19T12:20:19;31.10;1.00
48912;DHT22;34722;52.108;5.044;2023-06-19T12:22:44;30.60;1.00
48912;DHT22;34722;52.108;5.044;2023-06-19T12:25:10;30.00;1.00
48912;DHT22;34722;52.108;5.044;2023-06-19T12:27:37;30.30;1.00
48912;DHT22;34722;52.108;5.044;2023-06-19T12:30:04;30.80;1.00
48912;DHT22;34722;52.108;5.044;2023-06-19T12:32:29;31.10;1.00
48912;DHT22;34722;52.108;5.044;2023-06-19T12:34:55;31.30;1.00
48912;DHT22;34722;52.108;5.044;2023-06-19T12:37:21;30.80;1.00
48912;DHT22;34722;52.108;5.044;2023-06-19T12:39:47;29.90;1.00
48912;DHT22;34722;52.108;5.044;2023-06-19T12:42:13;29.70;1.00
48912;DHT22;34722;52.108;5.044;2023-06-19T12:44:40;29.60;1.00
48912;DHT22;34722;52.108;5.044;2023-06-19T12:47:06;29.70;1.00
48912;DHT22;34722;52.108;5.044;2023-06-19T12:49:32;29.50;1.00
48912;DHT22;34722;52.108;5.044;2023-06-19T12:51:58;29.60;1.00
48912;DHT22;34722;52.108;5.044;2023-06-19T12:54:23;29.70;1.00
48912;DHT22;34722;52.108;5.044;2023-06-19T12:56:49;29.80;1.00
48912;DHT22;34722;52.108;5.044;2023-06-19T12:59:15;29.60;1.00
48912;DHT22;34722;52.108;5.044;2023-06-19T13:01:42;29.60;1.00
48912;DHT22;34722;52.108;5.044;2023-06-19T13:04:08;29.90;1.00
48912;DHT22;34722;52.108;5.044;2023-06-19T13:06:35;29.20;1.00
48912;DHT22;34722;52.108;5.044;2023-06-19T13:09:01;29.20;1.00
48912;DHT22;34722;52.108;5.044;2023-06-19T13:11:27;29.10;1.00
48912;DHT22;34722;52.108;5.044;2023-06-19T13:13:53;29.20;1.00
48912;DHT22;34722;52.108;5.044;2023-06-19T13:16:19;29.00;1.00
48912;DHT22;34722;52.108;5.044;2023-06-19T13:18:44;29.30;1.00
48912;DHT22;34722;52.108;5.044;2023-06-19T13:21:12;29.30;1.00
48912;DHT22;34722;52.108;5.044;2023-06-19T13:23:38;29.40;1.00
48912;DHT22;34722;52.108;5.044;2023-06-19T13:26:06;28.90;1.00
48912;DHT22;34722;52.108;5.044;2023-06-19T13:28:31;29.00;1.00
48912;DHT22;34722;52.108;5.044;2023-06-19T13:30:57;29.20;1.00
48912;DHT22;34722;52.108;5.044;2023-06-19T13:33:22;29.40;1.00
48912;DHT22;34722;52.108;5.044;2023-06-19T13:35:48;29.30;1.00
48912;DHT22;34722;52.108;5.044;2023-06-19T13:38:14;29.00;1.00
48912;DHT22;34722;52.108;5.044;2023-06-19T13:40:41;29.10;1.00
48912;DHT22;34722;52.108;5.044;2023-06-19T13:43:07;28.70;1.00
48912;DHT22;34722;52.108;5.044;2023-06-19T13:45:33;28.80;1.00
48912;DHT22;34722;52.108;5.044;2023-06-19T13:48:00;28.90;1.00
48912;DHT22;34722;52.108;5.044;2023-06-19T13:50:26;29.30;1.00
48912;DHT22;34722;52.108;5.044;2023-06-19T13:52:52;28.90;1.00
48912;DHT22;34722;52.108;5.044;2023-06-19T13:55:19;28.60;1.00
48912;DHT22;34722;52.108;5.044;2023-06-19T13:57:53;27.70;1.00
48912;DHT22;34722;52.108;5.044;2023-06-19T14:00:19;27.10;1.00
48912;DHT22;34722;52.108;5.044;2023-06-19T14:02:45;27.60;1.00
48912;DHT22;34722;52.108;5.044;2023-06-19T14:05:12;28.20;1.00
48912;DHT22;34722;52.108;5.044;2023-06-19T14:07:40;28.20;1.00
48912;DHT22;34722;52.108;5.044;2023-06-19T14:10:07;28.30;1.00
48912;DHT22;34722;52.108;5.044;2023-06-19T14:12:33;28.00;1.00
48912;DHT22;34722;52.108;5.044;2023-06-19T14:14:59;28.20;1.00
48912;DHT22;34722;52.108;5.044;2023-06-19T14:17:25;28.00;1.00
48912;DHT22;34722;52.108;5.044;2023-06-19T14:19:51;27.70;1.00
48912;DHT22;34722;52.108;5.044;2023-06-19T14:22:17;27.80;1.00
48912;DHT22;34722;52.108;5.044;2023-06-19T14:24:43;27.70;1.00
48912;DHT22;34722;52.108;5.044;2023-06-19T14:27:09;27.80;1.00
48912;DHT22;34722;52.108;5.044;2023-06-19T14:29:34;27.90;1.00
48912;DHT22;34722;52.108;5.044;2023-06-19T14:32:00;27.90;1.00
48912;DHT22;34722;52.108;5.044;2023-06-19T14:34:26;27.40;1.00
48912;DHT22;34722;52.108;5.044;2023-06-19T14:36:54;27.30;1.00
48912;DHT22;34722;52.108;5.044;2023-06-19T14:39:20;27.30;1.00
48912;DHT22;34722;52.108;5.044;2023-06-19T14:41:46;27.30;1.00
48912;DHT22;34722;52.108;5.044;2023-06-19T14:44:11;27.20;1.00
48912;DHT22;34722;52.108;5.044;2023-06-19T14:46:37;27.30;1.00
48912;DHT22;34722;52.108;5.044;2023-06-19T14:49:10;27.30;1.00
48912;DHT22;34722;52.108;5.044;2023-06-19T14:51:35;27.20;1.00
48912;DHT22;34722;52.108;5.044;2023-06-19T14:54:01;27.10;1.00
48912;DHT22;34722;52.108;5.044;2023-06-19T14:56:28;27.30;1.00
48912;DHT22;34722;52.108;5.044;2023-06-19T14:58:54;27.30;1.00
48912;DHT22;34722;52.108;5.044;2023-06-19T15:01:20;26.90;1.00
48912;DHT22;34722;52.108;5.044;2023-06-19T15:03:45;26.70;1.00
48912;DHT22;34722;52.108;5.044;2023-06-19T15:06:11;26.80;1.00
48912;DHT22;34722;52.108;5.044;2023-06-19T15:08:37;26.90;1.00
48912;DHT22;34722;52.108;5.044;2023-06-19T15:11:04;26.80;1.00
48912;DHT22;34722;52.108;5.044;2023-06-19T15:13:31;26.80;1.00
48912;DHT22;34722;52.108;5.044;2023-06-19T15:15:56;26.70;1.00
48912;DHT22;34722;52.108;5.044;2023-06-19T15:18:29;26.80;1.00
48912;DHT22;34722;52.108;5.044;2023-06-19T15:20:55;26.90;1.00
48912;DHT22;34722;52.108;5.044;2023-06-19T15:23:20;27.10;1.00
48912;DHT22;34722;52.108;5.044;2023-06-19T15:25:46;26.80;1.00
48912;DHT22;34722;52.108;5.044;2023-06-19T15:28:14;27.00;1.00
48912;DHT22;34722;52.108;5.044;2023-06-19T15:30:40;27.10;1.00
48912;DHT22;34722;52.108;5.044;2023-06-19T15:33:05;27.20;1.00
48912;DHT22;34722;52.108;5.044;2023-06-19T15:35:31;26.90;1.00
48912;DHT22;34722;52.108;5.044;2023-06-19T15:37:57;26.50;1.00
48912;DHT22;34722;52.108;5.044;2023-06-19T15:40:24;26.30;1.00
48912;DHT22;34722;52.108;5.044;2023-06-19T15:42:52;26.40;1.00
48912;DHT22;34722;52.108;5.044;2023-06-19T15:45:17;26.60;1.00
48912;DHT22;34722;52.108;5.044;2023-06-19T15:47:43;26.50;1.00
48912;DHT22;34722;52.108;5.044;2023-06-19T15:50:09;26.80;1.00
48912;DHT22;34722;52.108;5.044;2023-06-19T15:52:35;27.10;2.60
48912;DHT22;34722;52.108;5.044;2023-06-19T15:55:01;27.30;19.90
48912;DHT22;34722;52.108;5.044;2023-06-19T15:57:27;27.30;21.30
48912;DHT22;34722;52.108;5.044;2023-06-19T15:59:52;27.30;30.40
48912;DHT22;34722;52.108;5.044;2023-06-19T16:02:19;27.40;32.30
48912;DHT22;34722;52.108;5.044;2023-06-19T16:04:45;27.30;44.20
48912;DHT22;34722;52.108;5.044;2023-06-19T16:07:11;26.90;41.70
48912;DHT22;34722;52.108;5.044;2023-06-19T16:09:37;26.80;49.60
48912;DHT22;34722;52.108;5.044;2023-06-19T16:12:03;26.50;65.80
48912;DHT22;34722;52.108;5.044;2023-06-19T16:14:30;26.40;89.20
48912;DHT22;34722;52.108;5.044;2023-06-19T16:16:56;26.60;87.10
48912;DHT22;34722;52.108;5.044;2023-06-19T16:19:22;26.50;77.40
48912;DHT22;34722;52.108;5.044;2023-06-19T16:21:48;26.40;95.40
48912;DHT22;34722;52.108;5.044;2023-06-19T16:24:13;26.20;99.90
48912;DHT22;34722;52.108;5.044;2023-06-19T16:26:39;26.20;99.90
48912;DHT22;34722;52.108;5.044;2023-06-19T16:29:05;26.10;99.90
48912;DHT22;34722;52.108;5.044;2023-06-19T16:31:30;26.20;99.90
48912;DHT22;34722;52.108;5.044;2023-06-19T16:33:56;26.30;99.90
48912;DHT22;34722;52.108;5.044;2023-06-19T16:36:22;26.50;99.90
48912;DHT22;34722;52.108;5.044;2023-06-19T16:38:48;26.50;99.90
48912;DHT22;34722;52.108;5.044;2023-06-19T16:41:16;26.50;99.90